sensor_id;sensor_type;location;lat;lon;timestamp;P1;durP1;ratioP1;P2;durP2;ratioP2
29576;SDS011;16509;53.862;10.672;2022-12-07T00:00:54;19.13;;;7.55;;
29576;SDS011;16509;53.862;10.672;2022-12-07T00:03:20;14.38;;;7.03;;
29576;SDS011;16509;53.862;10.672;2022-12-07T00:05:46;15.35;;;8.05;;
29576;SDS011;16509;53.862;10.672;2022-12-07T00:08:12;15.07;;;7.35;;
29576;SDS011;16509;53.862;10.672;2022-12-07T00:10:37;17.50;;;7.53;;
29576;SDS011;16509;53.862;10.672;2022-12-07T00:13:03;20.73;;;8.40;;
29576;SDS011;16509;53.862;10.672;2022-12-07T00:15:28;14.18;;;8.05;;
29576;SDS011;16509;53.862;10.672;2022-12-07T00:17:54;19.98;;;8.10;;
29576;SDS011;16509;53.862;10.672;2022-12-07T00:20:19;18.42;;;8.38;;
29576;SDS011;16509;53.862;10.672;2022-12-07T00:22:45;18.75;;;9.00;;
29576;SDS011;16509;53.862;10.672;2022-12-07T00:25:10;17.58;;;8.38;;
29576;SDS011;16509;53.862;10.672;2022-12-07T00:27:36;17.52;;;8.38;;
29576;SDS011;16509;53.862;10.672;2022-12-07T00:30:02;20.58;;;8.88;;
29576;SDS011;16509;53.862;10.672;2022-12-07T00:32:28;24.50;;;10.35;;
29576;SDS011;16509;53.862;10.672;2022-12-07T00:34:53;22.63;;;8.93;;
29576;SDS011;16509;53.862;10.672;2022-12-07T00:37:19;20.73;;;8.70;;
29576;SDS011;16509;53.862;10.672;2022-12-07T00:39:45;21.35;;;9.95;;
29576;SDS011;16509;53.862;10.672;2022-12-07T00:42:11;25.80;;;10.30;;
29576;SDS011;16509;53.862;10.672;2022-12-07T00:44:37;20.48;;;8.68;;
29576;SDS011;16509;53.862;10.672;2022-12-07T00:47:02;20.17;;;10.38;;
29576;SDS011;16509;53.862;10.672;2022-12-07T00:49:28;21.10;;;9.45;;
29576;SDS011;16509;53.862;10.672;2022-12-07T00:51:53;23.08;;;9.52;;
29576;SDS011;16509;53.862;10.672;2022-12-07T00:54:19;24.33;;;9.60;;
29576;SDS011;16509;53.862;10.672;2022-12-07T00:56:45;27.58;;;10.90;;
29576;SDS011;16509;53.862;10.672;2022-12-07T00:59:11;22.00;;;8.88;;
29576;SDS011;16509;53.862;10.672;2022-12-07T01:01:39;25.38;;;9.90;;
29576;SDS011;16509;53.862;10.672;2022-12-07T01:04:05;19.15;;;9.38;;
29576;SDS011;16509;53.862;10.672;2022-12-07T01:06:31;23.98;;;10.23;;
29576;SDS011;16509;53.862;10.672;2022-12-07T01:08:57;20.40;;;9.82;;
29576;SDS011;16509;53.862;10.672;2022-12-07T01:11:24;24.27;;;10.73;;
29576;SDS011;16509;53.862;10.672;2022-12-07T01:13:53;20.75;;;9.25;;
29576;SDS011;16509;53.862;10.672;2022-12-07T01:16:20;18.58;;;9.57;;
29576;SDS011;16509;53.862;10.672;2022-12-07T01:18:48;22.55;;;9.10;;
29576;SDS011;16509;53.862;10.672;2022-12-07T01:21:17;15.40;;;7.75;;
29576;SDS011;16509;53.862;10.672;2022-12-07T01:23:45;15.35;;;7.72;;
29576;SDS011;16509;53.862;10.672;2022-12-07T01:26:12;12.38;;;7.00;;
29576;SDS011;16509;53.862;10.672;2022-12-07T01:28:40;17.13;;;6.13;;
29576;SDS011;16509;53.862;10.672;2022-12-07T01:31:10;12.05;;;6.30;;
29576;SDS011;16509;53.862;10.672;2022-12-07T01:33:40;11.82;;;6.30;;
29576;SDS011;16509;53.862;10.672;2022-12-07T01:36:14;20.45;;;7.55;;
29576;SDS011;16509;53.862;10.672;2022-12-07T01:38:41;18.08;;;7.50;;
29576;SDS011;16509;53.862;10.672;2022-12-07T01:41:07;19.40;;;8.52;;
29576;SDS011;16509;53.862;10.672;2022-12-07T01:43:33;17.50;;;9.02;;
29576;SDS011;16509;53.862;10.672;2022-12-07T01:46:01;19.50;;;8.82;;
29576;SDS011;16509;53.862;10.672;2022-12-07T01:48:31;21.70;;;9.98;;
29576;SDS011;16509;53.862;10.672;2022-12-07T01:50:59;21.45;;;9.75;;
29576;SDS011;16509;53.862;10.672;2022-12-07T01:53:29;28.70;;;11.60;;
29576;SDS011;16509;53.862;10.672;2022-12-07T01:55:55;22.40;;;10.23;;
29576;SDS011;16509;53.862;10.672;2022-12-07T01:58:23;25.60;;;11.75;;
29576;SDS011;16509;53.862;10.672;2022-12-07T02:00:50;23.70;;;10.60;;
29576;SDS011;16509;53.862;10.672;2022-12-07T02:03:21;27.02;;;11.50;;
29576;SDS011;16509;53.862;10.672;2022-12-07T02:05:54;27.88;;;12.32;;
29576;SDS011;16509;53.862;10.672;2022-12-07T02:08:20;31.10;;;12.05;;
29576;SDS011;16509;53.862;10.672;2022-12-07T02:10:46;22.52;;;10.48;;
29576;SDS011;16509;53.862;10.672;2022-12-07T02:13:16;27.83;;;11.55;;
29576;SDS011;16509;53.862;10.672;2022-12-07T02:24:03;23.25;;;10.40;;
29576;SDS011;16509;53.862;10.672;2022-12-07T02:26:44;24.75;;;11.35;;
29576;SDS011;16509;53.862;10.672;2022-12-07T02:29:34;31.67;;;11.18;;
29576;SDS011;16509;53.862;10.672;2022-12-07T02:32:16;22.63;;;11.25;;
29576;SDS011;16509;53.862;10.672;2022-12-07T02:34:52;24.85;;;10.77;;
29576;SDS011;16509;53.862;10.672;2022-12-07T02:38:11;27.02;;;10.80;;
29576;SDS011;16509;53.862;10.672;2022-12-07T02:40:18;24.92;;;11.73;;
29576;SDS011;16509;53.862;10.672;2022-12-07T02:42:49;25.58;;;11.75;;
29576;SDS011;16509;53.862;10.672;2022-12-07T02:45:20;21.13;;;10.63;;
29576;SDS011;16509;53.862;10.672;2022-12-07T02:47:48;23.80;;;10.32;;
29576;SDS011;16509;53.862;10.672;2022-12-07T02:50:18;22.98;;;11.20;;
29576;SDS011;16509;53.862;10.672;2022-12-07T02:52:45;22.27;;;10.75;;
29576;SDS011;16509;53.862;10.672;2022-12-07T02:55:11;18.02;;;9.75;;
29576;SDS011;16509;53.862;10.672;2022-12-07T03:00:36;17.67;;;8.38;;
29576;SDS011;16509;53.862;10.672;2022-12-07T03:03:12;18.40;;;8.35;;
29576;SDS011;16509;53.862;10.672;2022-12-07T03:08:42;17.23;;;7.88;;
29576;SDS011;16509;53.862;10.672;2022-12-07T03:11:49;17.48;;;7.97;;
29576;SDS011;16509;53.862;10.672;2022-12-07T03:16:52;18.23;;;7.68;;
29576;SDS011;16509;53.862;10.672;2022-12-07T03:19:22;11.93;;;6.03;;
29576;SDS011;16509;53.862;10.672;2022-12-07T03:22:01;11.32;;;6.38;;
29576;SDS011;16509;53.862;10.672;2022-12-07T03:24:31;17.25;;;6.60;;
29576;SDS011;16509;53.862;10.672;2022-12-07T03:27:03;16.50;;;6.35;;
29576;SDS011;16509;53.862;10.672;2022-12-07T03:29:37;14.30;;;6.15;;
29576;SDS011;16509;53.862;10.672;2022-12-07T03:34:45;20.52;;;5.97;;
29576;SDS011;16509;53.862;10.672;2022-12-07T03:37:33;12.80;;;5.88;;
29576;SDS011;16509;53.862;10.672;2022-12-07T03:40:06;14.27;;;6.63;;
29576;SDS011;16509;53.862;10.672;2022-12-07T03:42:36;14.52;;;6.53;;
29576;SDS011;16509;53.862;10.672;2022-12-07T03:45:02;15.52;;;5.35;;
29576;SDS011;16509;53.862;10.672;2022-12-07T03:47:32;10.32;;;5.40;;
29576;SDS011;16509;53.862;10.672;2022-12-07T03:53:20;14.88;;;6.38;;
29576;SDS011;16509;53.862;10.672;2022-12-07T03:55:51;10.90;;;5.32;;
29576;SDS011;16509;53.862;10.672;2022-12-07T03:58:20;10.93;;;5.68;;
29576;SDS011;16509;53.862;10.672;2022-12-07T04:00:48;11.50;;;5.05;;
29576;SDS011;16509;53.862;10.672;2022-12-07T04:03:14;10.32;;;5.13;;
29576;SDS011;16509;53.862;10.672;2022-12-07T04:05:40;14.82;;;5.53;;
29576;SDS011;16509;53.862;10.672;2022-12-07T04:08:07;14.15;;;6.00;;
29576;SDS011;16509;53.862;10.672;2022-12-07T04:10:32;8.43;;;4.15;;
29576;SDS011;16509;53.862;10.672;2022-12-07T04:12:58;9.45;;;4.50;;
29576;SDS011;16509;53.862;10.672;2022-12-07T04:15:24;8.98;;;4.63;;
29576;SDS011;16509;53.862;10.672;2022-12-07T04:17:50;19.38;;;5.40;;
29576;SDS011;16509;53.862;10.672;2022-12-07T04:20:16;7.20;;;4.53;;
29576;SDS011;16509;53.862;10.672;2022-12-07T04:22:41;9.93;;;4.05;;
29576;SDS011;16509;53.862;10.672;2022-12-07T04:25:07;8.73;;;4.43;;
29576;SDS011;16509;53.862;10.672;2022-12-07T04:27:33;8.20;;;3.97;;
29576;SDS011;16509;53.862;10.672;2022-12-07T04:29:59;11.07;;;4.68;;
29576;SDS011;16509;53.862;10.672;2022-12-07T04:32:24;12.43;;;4.38;;
29576;SDS011;16509;53.862;10.672;2022-12-07T04:34:50;9.98;;;4.85;;
29576;SDS011;16509;53.862;10.672;2022-12-07T04:37:16;10.50;;;4.80;;
29576;SDS011;16509;53.862;10.672;2022-12-07T04:39:42;7.05;;;3.75;;
29576;SDS011;16509;53.862;10.672;2022-12-07T04:42:10;7.35;;;4.70;;
29576;SDS011;16509;53.862;10.672;2022-12-07T04:44:36;7.10;;;4.70;;
29576;SDS011;16509;53.862;10.672;2022-12-07T04:47:02;7.32;;;4.05;;
29576;SDS011;16509;53.862;10.672;2022-12-07T04:49:28;9.93;;;4.75;;
29576;SDS011;16509;53.862;10.672;2022-12-07T04:51:53;5.22;;;3.33;;
29576;SDS011;16509;53.862;10.672;2022-12-07T04:54:19;6.85;;;4.45;;
29576;SDS011;16509;53.862;10.672;2022-12-07T04:56:45;8.85;;;4.30;;
29576;SDS011;16509;53.862;10.672;2022-12-07T04:59:11;9.60;;;5.55;;
29576;SDS011;16509;53.862;10.672;2022-12-07T05:01:37;7.65;;;4.90;;
29576;SDS011;16509;53.862;10.672;2022-12-07T05:04:04;13.65;;;5.20;;
29576;SDS011;16509;53.862;10.672;2022-12-07T05:06:30;8.43;;;4.75;;
29576;SDS011;16509;53.862;10.672;2022-12-07T05:08:56;9.93;;;4.45;;
29576;SDS011;16509;53.862;10.672;2022-12-07T05:11:21;7.78;;;4.68;;
29576;SDS011;16509;53.862;10.672;2022-12-07T05:14:03;11.18;;;5.30;;
29576;SDS011;16509;53.862;10.672;2022-12-07T05:16:40;7.22;;;4.25;;
29576;SDS011;16509;53.862;10.672;2022-12-07T05:19:07;13.15;;;4.75;;
29576;SDS011;16509;53.862;10.672;2022-12-07T05:21:34;13.45;;;5.95;;
29576;SDS011;16509;53.862;10.672;2022-12-07T05:24:00;12.15;;;5.60;;
29576;SDS011;16509;53.862;10.672;2022-12-07T05:26:27;10.85;;;5.93;;
29576;SDS011;16509;53.862;10.672;2022-12-07T05:28:53;9.25;;;5.20;;
29576;SDS011;16509;53.862;10.672;2022-12-07T05:31:20;9.10;;;4.90;;
29576;SDS011;16509;53.862;10.672;2022-12-07T05:33:47;9.13;;;4.53;;
29576;SDS011;16509;53.862;10.672;2022-12-07T05:36:13;10.45;;;5.00;;
29576;SDS011;16509;53.862;10.672;2022-12-07T05:38:38;14.40;;;5.65;;
29576;SDS011;16509;53.862;10.672;2022-12-07T05:41:06;14.90;;;5.00;;
29576;SDS011;16509;53.862;10.672;2022-12-07T05:43:52;7.00;;;4.65;;
29576;SDS011;16509;53.862;10.672;2022-12-07T05:46:18;15.07;;;5.75;;
29576;SDS011;16509;53.862;10.672;2022-12-07T05:48:44;7.65;;;4.93;;
29576;SDS011;16509;53.862;10.672;2022-12-07T05:51:09;11.18;;;5.18;;
29576;SDS011;16509;53.862;10.672;2022-12-07T05:53:35;13.30;;;5.60;;
29576;SDS011;16509;53.862;10.672;2022-12-07T05:56:00;9.18;;;5.03;;
29576;SDS011;16509;53.862;10.672;2022-12-07T05:58:26;8.90;;;4.53;;
29576;SDS011;16509;53.862;10.672;2022-12-07T06:01:10;10.43;;;5.05;;
29576;SDS011;16509;53.862;10.672;2022-12-07T06:03:35;9.18;;;5.40;;
29576;SDS011;16509;53.862;10.672;2022-12-07T06:06:01;10.02;;;5.15;;
29576;SDS011;16509;53.862;10.672;2022-12-07T06:08:26;10.43;;;5.03;;
29576;SDS011;16509;53.862;10.672;2022-12-07T06:10:52;9.65;;;5.45;;
29576;SDS011;16509;53.862;10.672;2022-12-07T06:13:37;8.75;;;4.55;;
29576;SDS011;16509;53.862;10.672;2022-12-07T06:16:03;12.18;;;5.95;;
29576;SDS011;16509;53.862;10.672;2022-12-07T06:18:29;10.98;;;5.82;;
29576;SDS011;16509;53.862;10.672;2022-12-07T06:20:54;12.10;;;6.05;;
29576;SDS011;16509;53.862;10.672;2022-12-07T06:23:20;11.00;;;6.22;;
29576;SDS011;16509;53.862;10.672;2022-12-07T06:25:46;12.93;;;5.63;;
29576;SDS011;16509;53.862;10.672;2022-12-07T06:28:11;8.73;;;5.13;;
29576;SDS011;16509;53.862;10.672;2022-12-07T06:30:37;12.57;;;6.40;;
29576;SDS011;16509;53.862;10.672;2022-12-07T06:33:02;14.05;;;6.50;;
29576;SDS011;16509;53.862;10.672;2022-12-07T06:35:28;13.38;;;6.75;;
29576;SDS011;16509;53.862;10.672;2022-12-07T06:37:53;13.93;;;6.85;;
29576;SDS011;16509;53.862;10.672;2022-12-07T06:40:19;17.80;;;6.88;;
29576;SDS011;16509;53.862;10.672;2022-12-07T06:42:44;17.65;;;8.95;;
29576;SDS011;16509;53.862;10.672;2022-12-07T06:45:10;15.57;;;8.07;;
29576;SDS011;16509;53.862;10.672;2022-12-07T06:47:36;19.25;;;9.32;;
29576;SDS011;16509;53.862;10.672;2022-12-07T06:50:01;16.98;;;8.27;;
29576;SDS011;16509;53.862;10.672;2022-12-07T06:52:27;21.30;;;9.45;;
29576;SDS011;16509;53.862;10.672;2022-12-07T06:54:53;18.60;;;8.35;;
29576;SDS011;16509;53.862;10.672;2022-12-07T06:57:19;18.95;;;7.75;;
29576;SDS011;16509;53.862;10.672;2022-12-07T06:59:45;17.80;;;8.27;;
29576;SDS011;16509;53.862;10.672;2022-12-07T07:02:10;17.67;;;9.05;;
29576;SDS011;16509;53.862;10.672;2022-12-07T07:04:36;17.38;;;7.78;;
29576;SDS011;16509;53.862;10.672;2022-12-07T07:07:02;17.02;;;6.85;;
29576;SDS011;16509;53.862;10.672;2022-12-07T07:09:27;20.77;;;7.97;;
29576;SDS011;16509;53.862;10.672;2022-12-07T07:11:53;16.73;;;7.07;;
29576;SDS011;16509;53.862;10.672;2022-12-07T07:14:18;16.42;;;6.38;;
29576;SDS011;16509;53.862;10.672;2022-12-07T07:16:44;11.13;;;5.90;;
29576;SDS011;16509;53.862;10.672;2022-12-07T07:19:10;13.48;;;6.28;;
29576;SDS011;16509;53.862;10.672;2022-12-07T07:21:36;9.35;;;4.97;;
29576;SDS011;16509;53.862;10.672;2022-12-07T07:24:01;13.77;;;6.07;;
29576;SDS011;16509;53.862;10.672;2022-12-07T07:26:27;11.65;;;5.97;;
29576;SDS011;16509;53.862;10.672;2022-12-07T07:28:53;11.70;;;5.57;;
29576;SDS011;16509;53.862;10.672;2022-12-07T07:31:18;10.15;;;4.68;;
29576;SDS011;16509;53.862;10.672;2022-12-07T07:33:45;13.43;;;5.97;;
29576;SDS011;16509;53.862;10.672;2022-12-07T07:36:11;9.65;;;4.55;;
29576;SDS011;16509;53.862;10.672;2022-12-07T07:38:37;7.82;;;4.15;;
29576;SDS011;16509;53.862;10.672;2022-12-07T07:41:03;10.18;;;4.82;;
29576;SDS011;16509;53.862;10.672;2022-12-07T07:43:28;13.73;;;5.18;;
29576;SDS011;16509;53.862;10.672;2022-12-07T07:45:54;9.95;;;5.18;;
29576;SDS011;16509;53.862;10.672;2022-12-07T07:48:20;10.43;;;5.00;;
29576;SDS011;16509;53.862;10.672;2022-12-07T07:50:47;10.25;;;5.32;;
29576;SDS011;16509;53.862;10.672;2022-12-07T07:53:13;9.73;;;4.57;;
29576;SDS011;16509;53.862;10.672;2022-12-07T07:55:39;9.45;;;4.90;;
29576;SDS011;16509;53.862;10.672;2022-12-07T07:58:04;14.10;;;6.15;;
29576;SDS011;16509;53.862;10.672;2022-12-07T08:00:30;11.50;;;5.32;;
29576;SDS011;16509;53.862;10.672;2022-12-07T08:02:55;9.07;;;4.95;;
29576;SDS011;16509;53.862;10.672;2022-12-07T08:05:21;12.65;;;4.90;;
29576;SDS011;16509;53.862;10.672;2022-12-07T08:07:47;13.55;;;5.35;;
29576;SDS011;16509;53.862;10.672;2022-12-07T08:10:13;11.50;;;5.35;;
29576;SDS011;16509;53.862;10.672;2022-12-07T08:12:39;12.00;;;5.45;;
29576;SDS011;16509;53.862;10.672;2022-12-07T08:15:26;12.65;;;6.68;;
29576;SDS011;16509;53.862;10.672;2022-12-07T08:17:53;11.50;;;4.95;;
29576;SDS011;16509;53.862;10.672;2022-12-07T08:20:19;15.93;;;6.30;;
29576;SDS011;16509;53.862;10.672;2022-12-07T08:22:45;9.80;;;5.18;;
29576;SDS011;16509;53.862;10.672;2022-12-07T08:25:10;11.60;;;5.90;;
29576;SDS011;16509;53.862;10.672;2022-12-07T08:27:36;10.32;;;5.70;;
29576;SDS011;16509;53.862;10.672;2022-12-07T08:30:01;9.80;;;5.28;;
29576;SDS011;16509;53.862;10.672;2022-12-07T08:32:27;10.18;;;4.80;;
29576;SDS011;16509;53.862;10.672;2022-12-07T08:34:53;11.82;;;4.75;;
29576;SDS011;16509;53.862;10.672;2022-12-07T08:37:18;11.80;;;4.20;;
29576;SDS011;16509;53.862;10.672;2022-12-07T08:39:44;7.00;;;4.15;;
29576;SDS011;16509;53.862;10.672;2022-12-07T08:42:09;10.32;;;4.63;;
29576;SDS011;16509;53.862;10.672;2022-12-07T08:44:35;6.93;;;4.20;;
29576;SDS011;16509;53.862;10.672;2022-12-07T08:47:02;9.88;;;4.32;;
29576;SDS011;16509;53.862;10.672;2022-12-07T08:49:36;7.07;;;3.92;;
29576;SDS011;16509;53.862;10.672;2022-12-07T08:52:08;10.88;;;4.03;;
29576;SDS011;16509;53.862;10.672;2022-12-07T08:54:34;8.57;;;4.20;;
29576;SDS011;16509;53.862;10.672;2022-12-07T08:57:02;10.90;;;3.97;;
29576;SDS011;16509;53.862;10.672;2022-12-07T08:59:29;11.82;;;4.13;;
29576;SDS011;16509;53.862;10.672;2022-12-07T09:01:55;6.57;;;3.42;;
29576;SDS011;16509;53.862;10.672;2022-12-07T09:04:20;9.25;;;3.42;;
29576;SDS011;16509;53.862;10.672;2022-12-07T09:06:46;5.75;;;3.63;;
29576;SDS011;16509;53.862;10.672;2022-12-07T09:09:12;8.82;;;3.45;;
29576;SDS011;16509;53.862;10.672;2022-12-07T09:11:39;8.70;;;3.45;;
29576;SDS011;16509;53.862;10.672;2022-12-07T09:14:05;7.82;;;3.38;;
29576;SDS011;16509;53.862;10.672;2022-12-07T09:16:30;11.85;;;3.58;;
29576;SDS011;16509;53.862;10.672;2022-12-07T09:18:56;9.98;;;4.00;;
29576;SDS011;16509;53.862;10.672;2022-12-07T09:21:22;8.20;;;3.40;;
29576;SDS011;16509;53.862;10.672;2022-12-07T09:23:47;14.73;;;3.45;;
29576;SDS011;16509;53.862;10.672;2022-12-07T09:26:13;5.53;;;3.22;;
29576;SDS011;16509;53.862;10.672;2022-12-07T09:28:39;8.52;;;3.20;;
29576;SDS011;16509;53.862;10.672;2022-12-07T09:31:05;9.07;;;2.85;;
29576;SDS011;16509;53.862;10.672;2022-12-07T09:33:31;9.57;;;3.22;;
29576;SDS011;16509;53.862;10.672;2022-12-07T09:35:57;5.15;;;2.72;;
29576;SDS011;16509;53.862;10.672;2022-12-07T09:38:23;6.07;;;3.20;;
29576;SDS011;16509;53.862;10.672;2022-12-07T09:40:51;7.35;;;2.75;;
29576;SDS011;16509;53.862;10.672;2022-12-07T09:43:18;10.48;;;2.65;;
29576;SDS011;16509;53.862;10.672;2022-12-07T09:45:47;9.77;;;2.95;;
29576;SDS011;16509;53.862;10.672;2022-12-07T09:48:19;16.48;;;3.25;;
29576;SDS011;16509;53.862;10.672;2022-12-07T09:50:47;8.02;;;3.08;;
29576;SDS011;16509;53.862;10.672;2022-12-07T09:53:15;9.38;;;3.58;;
29576;SDS011;16509;53.862;10.672;2022-12-07T09:55:47;7.57;;;2.10;;
29576;SDS011;16509;53.862;10.672;2022-12-07T09:58:23;8.77;;;2.72;;
29576;SDS011;16509;53.862;10.672;2022-12-07T10:00:59;7.53;;;2.25;;
29576;SDS011;16509;53.862;10.672;2022-12-07T10:03:30;5.35;;;2.30;;
29576;SDS011;16509;53.862;10.672;2022-12-07T10:05:55;7.97;;;2.72;;
29576;SDS011;16509;53.862;10.672;2022-12-07T10:08:22;6.28;;;2.08;;
29576;SDS011;16509;53.862;10.672;2022-12-07T10:10:49;4.80;;;2.42;;
29576;SDS011;16509;53.862;10.672;2022-12-07T10:13:35;5.18;;;1.95;;
29576;SDS011;16509;53.862;10.672;2022-12-07T10:16:06;9.63;;;2.03;;
29576;SDS011;16509;53.862;10.672;2022-12-07T10:18:50;6.70;;;2.15;;
29576;SDS011;16509;53.862;10.672;2022-12-07T10:21:19;5.22;;;2.05;;
29576;SDS011;16509;53.862;10.672;2022-12-07T10:24:02;6.20;;;1.83;;
29576;SDS011;16509;53.862;10.672;2022-12-07T10:26:33;10.18;;;1.50;;
29576;SDS011;16509;53.862;10.672;2022-12-07T10:29:13;2.67;;;1.75;;
29576;SDS011;16509;53.862;10.672;2022-12-07T10:31:57;17.48;;;1.98;;
29576;SDS011;16509;53.862;10.672;2022-12-07T10:34:30;5.15;;;1.70;;
29576;SDS011;16509;53.862;10.672;2022-12-07T10:37:18;2.58;;;1.45;;
29576;SDS011;16509;53.862;10.672;2022-12-07T10:42:19;6.78;;;1.58;;
29576;SDS011;16509;53.862;10.672;2022-12-07T10:45:06;10.93;;;2.28;;
29576;SDS011;16509;53.862;10.672;2022-12-07T10:47:51;9.38;;;1.67;;
29576;SDS011;16509;53.862;10.672;2022-12-07T10:59:23;2.60;;;1.63;;
29576;SDS011;16509;53.862;10.672;2022-12-07T11:02:21;2.30;;;1.42;;
29576;SDS011;16509;53.862;10.672;2022-12-07T11:10:12;12.18;;;2.15;;
29576;SDS011;16509;53.862;10.672;2022-12-07T11:18:22;6.10;;;2.00;;
29576;SDS011;16509;53.862;10.672;2022-12-07T11:31:52;3.42;;;1.73;;
29576;SDS011;16509;53.862;10.672;2022-12-07T11:34:31;10.77;;;1.98;;
29576;SDS011;16509;53.862;10.672;2022-12-07T11:37:05;8.95;;;1.70;;
29576;SDS011;16509;53.862;10.672;2022-12-07T11:39:49;7.38;;;1.88;;
29576;SDS011;16509;53.862;10.672;2022-12-07T11:42:27;9.07;;;2.00;;
29576;SDS011;16509;53.862;10.672;2022-12-07T11:45:09;4.75;;;1.58;;
29576;SDS011;16509;53.862;10.672;2022-12-07T11:47:48;5.22;;;1.45;;
29576;SDS011;16509;53.862;10.672;2022-12-07T11:50:26;4.18;;;1.50;;
29576;SDS011;16509;53.862;10.672;2022-12-07T11:58:39;9.43;;;1.58;;
29576;SDS011;16509;53.862;10.672;2022-12-07T12:06:45;2.20;;;1.13;;
29576;SDS011;16509;53.862;10.672;2022-12-07T12:23:10;4.47;;;1.38;;
29576;SDS011;16509;53.862;10.672;2022-12-07T12:28:18;1.75;;;1.02;;
29576;SDS011;16509;53.862;10.672;2022-12-07T12:30:45;8.55;;;1.58;;
29576;SDS011;16509;53.862;10.672;2022-12-07T12:33:29;3.60;;;0.85;;
29576;SDS011;16509;53.862;10.672;2022-12-07T12:44:24;1.75;;;0.93;;
29576;SDS011;16509;53.862;10.672;2022-12-07T12:51:51;7.97;;;1.58;;
29576;SDS011;16509;53.862;10.672;2022-12-07T13:02:05;2.58;;;1.35;;
29576;SDS011;16509;53.862;10.672;2022-12-07T13:15:40;4.68;;;0.95;;
29576;SDS011;16509;53.862;10.672;2022-12-07T13:20:59;2.25;;;1.10;;
29576;SDS011;16509;53.862;10.672;2022-12-07T13:23:31;1.35;;;0.95;;
29576;SDS011;16509;53.862;10.672;2022-12-07T13:26:20;8.75;;;1.88;;
29576;SDS011;16509;53.862;10.672;2022-12-07T13:34:02;1.30;;;0.90;;
29576;SDS011;16509;53.862;10.672;2022-12-07T13:36:31;5.88;;;1.55;;
29576;SDS011;16509;53.862;10.672;2022-12-07T13:39:09;1.55;;;0.98;;
29576;SDS011;16509;53.862;10.672;2022-12-07T13:41:41;2.50;;;1.02;;
29576;SDS011;16509;53.862;10.672;2022-12-07T13:44:12;5.72;;;1.40;;
29576;SDS011;16509;53.862;10.672;2022-12-07T13:46:59;1.90;;;1.42;;
29576;SDS011;16509;53.862;10.672;2022-12-07T13:49:50;4.43;;;1.42;;
29576;SDS011;16509;53.862;10.672;2022-12-07T13:54:49;2.45;;;1.10;;
29576;SDS011;16509;53.862;10.672;2022-12-07T13:57:26;3.72;;;0.82;;
29576;SDS011;16509;53.862;10.672;2022-12-07T13:59:55;6.43;;;1.52;;
29576;SDS011;16509;53.862;10.672;2022-12-07T14:02:26;6.50;;;0.95;;
29576;SDS011;16509;53.862;10.672;2022-12-07T14:05:14;3.03;;;1.23;;
29576;SDS011;16509;53.862;10.672;2022-12-07T14:10:26;8.45;;;1.15;;
29576;SDS011;16509;53.862;10.672;2022-12-07T14:13:00;4.75;;;1.15;;
29576;SDS011;16509;53.862;10.672;2022-12-07T14:15:32;4.50;;;1.40;;
29576;SDS011;16509;53.862;10.672;2022-12-07T14:18:02;5.93;;;1.40;;
29576;SDS011;16509;53.862;10.672;2022-12-07T14:20:37;2.83;;;1.27;;
29576;SDS011;16509;53.862;10.672;2022-12-07T14:23:05;2.28;;;0.90;;
29576;SDS011;16509;53.862;10.672;2022-12-07T14:25:50;8.18;;;1.05;;
29576;SDS011;16509;53.862;10.672;2022-12-07T14:28:31;5.97;;;1.55;;
29576;SDS011;16509;53.862;10.672;2022-12-07T14:30:58;7.85;;;1.42;;
29576;SDS011;16509;53.862;10.672;2022-12-07T14:33:25;6.13;;;1.77;;
29576;SDS011;16509;53.862;10.672;2022-12-07T14:35:51;3.85;;;1.77;;
29576;SDS011;16509;53.862;10.672;2022-12-07T14:38:24;1.40;;;1.10;;
29576;SDS011;16509;53.862;10.672;2022-12-07T14:40:51;3.47;;;0.88;;
29576;SDS011;16509;53.862;10.672;2022-12-07T14:43:18;8.85;;;1.20;;
29576;SDS011;16509;53.862;10.672;2022-12-07T14:45:44;3.53;;;1.40;;
29576;SDS011;16509;53.862;10.672;2022-12-07T14:48:11;1.25;;;0.85;;
29576;SDS011;16509;53.862;10.672;2022-12-07T14:50:39;2.88;;;0.93;;
29576;SDS011;16509;53.862;10.672;2022-12-07T14:53:16;3.92;;;1.20;;
29576;SDS011;16509;53.862;10.672;2022-12-07T14:55:43;1.70;;;1.00;;
29576;SDS011;16509;53.862;10.672;2022-12-07T14:58:15;3.67;;;1.02;;
29576;SDS011;16509;53.862;10.672;2022-12-07T15:00:42;2.03;;;1.02;;
29576;SDS011;16509;53.862;10.672;2022-12-07T15:03:08;3.38;;;1.08;;
29576;SDS011;16509;53.862;10.672;2022-12-07T15:05:34;3.88;;;1.00;;
29576;SDS011;16509;53.862;10.672;2022-12-07T15:08:01;3.25;;;1.45;;
29576;SDS011;16509;53.862;10.672;2022-12-07T15:10:28;3.72;;;1.30;;
29576;SDS011;16509;53.862;10.672;2022-12-07T15:12:57;4.53;;;1.30;;
29576;SDS011;16509;53.862;10.672;2022-12-07T15:15:43;0.80;;;0.80;;
29576;SDS011;16509;53.862;10.672;2022-12-07T15:18:08;7.78;;;0.90;;
29576;SDS011;16509;53.862;10.672;2022-12-07T15:20:34;3.00;;;1.38;;
29576;SDS011;16509;53.862;10.672;2022-12-07T15:22:59;1.73;;;1.30;;
29576;SDS011;16509;53.862;10.672;2022-12-07T15:25:25;1.58;;;1.02;;
29576;SDS011;16509;53.862;10.672;2022-12-07T15:27:50;1.70;;;1.15;;
29576;SDS011;16509;53.862;10.672;2022-12-07T15:30:16;7.47;;;1.58;;
29576;SDS011;16509;53.862;10.672;2022-12-07T15:32:42;8.70;;;1.75;;
29576;SDS011;16509;53.862;10.672;2022-12-07T15:35:07;3.38;;;1.00;;
29576;SDS011;16509;53.862;10.672;2022-12-07T15:37:33;7.38;;;1.80;;
29576;SDS011;16509;53.862;10.672;2022-12-07T15:39:59;2.72;;;1.50;;
29576;SDS011;16509;53.862;10.672;2022-12-07T15:42:24;2.88;;;1.65;;
29576;SDS011;16509;53.862;10.672;2022-12-07T15:44:50;7.00;;;1.58;;
29576;SDS011;16509;53.862;10.672;2022-12-07T15:47:28;1.10;;;1.02;;
29576;SDS011;16509;53.862;10.672;2022-12-07T15:49:58;5.22;;;1.42;;
29576;SDS011;16509;53.862;10.672;2022-12-07T15:52:24;1.10;;;0.93;;
29576;SDS011;16509;53.862;10.672;2022-12-07T15:54:50;3.78;;;1.42;;
29576;SDS011;16509;53.862;10.672;2022-12-07T15:57:16;1.67;;;1.00;;
29576;SDS011;16509;53.862;10.672;2022-12-07T15:59:41;0.93;;;0.90;;
29576;SDS011;16509;53.862;10.672;2022-12-07T16:02:08;4.57;;;1.40;;
29576;SDS011;16509;53.862;10.672;2022-12-07T16:04:35;1.83;;;1.17;;
29576;SDS011;16509;53.862;10.672;2022-12-07T16:07:01;2.55;;;1.02;;
29576;SDS011;16509;53.862;10.672;2022-12-07T16:09:27;3.30;;;1.08;;
29576;SDS011;16509;53.862;10.672;2022-12-07T16:11:53;1.98;;;1.45;;
29576;SDS011;16509;53.862;10.672;2022-12-07T16:14:19;0.95;;;0.90;;
29576;SDS011;16509;53.862;10.672;2022-12-07T16:16:45;1.33;;;1.23;;
29576;SDS011;16509;53.862;10.672;2022-12-07T16:19:11;1.58;;;0.98;;
29576;SDS011;16509;53.862;10.672;2022-12-07T16:21:37;2.67;;;1.45;;
29576;SDS011;16509;53.862;10.672;2022-12-07T16:24:03;5.07;;;1.30;;
29576;SDS011;16509;53.862;10.672;2022-12-07T16:26:30;4.50;;;1.40;;
29576;SDS011;16509;53.862;10.672;2022-12-07T16:28:55;2.78;;;1.25;;
29576;SDS011;16509;53.862;10.672;2022-12-07T16:31:22;4.00;;;1.23;;
29576;SDS011;16509;53.862;10.672;2022-12-07T16:33:50;2.20;;;1.50;;
29576;SDS011;16509;53.862;10.672;2022-12-07T16:36:18;1.80;;;1.02;;
29576;SDS011;16509;53.862;10.672;2022-12-07T16:38:46;4.90;;;1.63;;
29576;SDS011;16509;53.862;10.672;2022-12-07T16:41:12;9.07;;;2.13;;
29576;SDS011;16509;53.862;10.672;2022-12-07T16:43:37;10.30;;;1.75;;
29576;SDS011;16509;53.862;10.672;2022-12-07T16:46:06;2.00;;;1.73;;